createdAt,value
2018-10-09T00:00:28.661Z,20.23
2018-10-09T00:02:57.170Z,22.90
2018-10-09T00:05:25.771Z,21.40
2018-10-09T00:07:54.266Z,23.00
2018-10-09T00:10:22.852Z,22.20
2018-10-09T00:12:51.389Z,22.83
2018-10-09T00:15:19.868Z,22.13
2018-10-09T00:17:48.372Z,20.90
2018-10-09T00:20:19.801Z,22.03
2018-10-09T00:22:48.392Z,22.33
2018-10-09T00:25:16.944Z,23.43
2018-10-09T00:27:45.434Z,23.10
2018-10-09T00:30:14.004Z,21.77
2018-10-09T00:32:42.511Z,21.70
2018-10-09T00:35:11.098Z,21.80
2018-10-09T00:37:39.641Z,22.30
2018-10-09T00:40:08.237Z,20.43
2018-10-09T00:42:36.769Z,22.37
2018-10-09T00:45:05.618Z,22.47
2018-10-09T00:47:34.194Z,22.50
2018-10-09T00:50:02.732Z,24.63
2018-10-09T00:52:31.382Z,22.90
2018-10-09T00:55:00.020Z,22.73
2018-10-09T00:57:28.674Z,21.43
2018-10-09T00:59:57.216Z,23.90
2018-10-09T01:02:25.747Z,22.60
2018-10-09T01:04:54.288Z,21.40
2018-10-09T01:07:23.475Z,21.57
2018-10-09T01:09:52.032Z,23.77
2018-10-09T01:12:20.709Z,23.90
2018-10-09T01:14:49.269Z,23.80
2018-10-09T01:17:17.796Z,23.03
2018-10-09T01:19:46.350Z,23.20
2018-10-09T01:22:14.869Z,25.67
2018-10-09T01:24:43.425Z,24.90
2018-10-09T01:27:11.974Z,24.23
2018-10-09T01:29:40.495Z,22.57
2018-10-09T01:32:09.024Z,23.23
2018-10-09T01:34:37.638Z,22.57
2018-10-09T01:37:06.274Z,23.00
2018-10-09T01:39:34.783Z,22.57
2018-10-09T01:42:03.299Z,25.17
2018-10-09T01:44:31.826Z,25.03
2018-10-09T01:47:00.343Z,25.67
2018-10-09T01:49:28.928Z,26.13
2018-10-09T01:51:57.438Z,27.70
2018-10-09T01:54:25.944Z,30.50
2018-10-09T01:56:54.503Z,26.83
2018-10-09T01:59:23.017Z,29.00
2018-10-09T02:01:51.569Z,27.63
2018-10-09T02:04:20.150Z,28.43
2018-10-09T02:06:48.694Z,28.10
2018-10-09T02:09:17.248Z,28.40
2018-10-09T02:11:45.774Z,28.63
2018-10-09T02:14:14.448Z,28.30
2018-10-09T02:16:42.996Z,27.57
2018-10-09T02:19:11.507Z,26.57
2018-10-09T02:21:40.020Z,25.53
2018-10-09T02:24:08.565Z,28.57
2018-10-09T02:26:37.154Z,26.63
2018-10-09T02:29:05.802Z,27.33
2018-10-09T02:31:34.407Z,25.40
2018-10-09T02:34:03.015Z,27.70
2018-10-09T02:36:31.557Z,25.07
2018-10-09T02:39:00.132Z,27.60
2018-10-09T02:41:28.621Z,28.43
2018-10-09T02:43:57.109Z,28.07
2018-10-09T02:46:25.620Z,28.80
2018-10-09T02:48:54.153Z,28.40
2018-10-09T02:51:22.711Z,28.20
2018-10-09T02:53:51.206Z,26.23
2018-10-09T02:56:19.750Z,30.60
2018-10-09T02:58:48.380Z,27.70
2018-10-09T03:01:16.946Z,28.47
2018-10-09T03:03:46.474Z,26.87
2018-10-09T03:06:15.044Z,26.17
2018-10-09T03:08:43.542Z,28.83
2018-10-09T03:11:12.160Z,28.10
2018-10-09T03:13:40.737Z,27.83
2018-10-09T03:16:09.489Z,25.77
2018-10-09T03:18:38.939Z,27.97
2018-10-09T03:21:07.543Z,28.53
2018-10-09T03:23:36.090Z,28.90
2018-10-09T03:26:04.615Z,26.10
2018-10-09T03:28:33.140Z,28.13
2018-10-09T03:31:01.704Z,28.27
2018-10-09T03:33:30.277Z,30.43
2018-10-09T03:35:58.757Z,27.73
2018-10-09T03:38:27.978Z,30.30
2018-10-09T03:40:56.492Z,28.93
2018-10-09T03:43:25.133Z,31.47
2018-10-09T03:45:53.696Z,31.97
2018-10-09T03:48:22.202Z,30.27
2018-10-09T03:50:50.762Z,29.20
2018-10-09T03:53:19.270Z,29.27
2018-10-09T03:55:47.780Z,30.20
2018-10-09T03:58:16.305Z,28.50
2018-10-09T04:00:44.806Z,29.47
2018-10-09T04:03:13.288Z,30.53
2018-10-09T04:05:41.808Z,30.53
2018-10-09T04:08:10.300Z,31.20
2018-10-09T04:10:38.849Z,32.90
2018-10-09T04:13:07.399Z,33.53
2018-10-09T04:15:35.987Z,33.70
2018-10-09T04:18:04.461Z,34.17
2018-10-09T04:20:32.969Z,33.40
2018-10-09T04:23:01.479Z,35.73
2018-10-09T04:25:29.957Z,33.90
2018-10-09T04:27:58.530Z,35.70
2018-10-09T04:30:27.020Z,35.83
2018-10-09T04:32:55.577Z,35.33
2018-10-09T04:35:24.174Z,36.27
2018-10-09T04:37:52.692Z,35.37
2018-10-09T04:40:21.251Z,40.20
2018-10-09T04:42:50.513Z,36.40
2018-10-09T04:45:19.101Z,37.80
2018-10-09T04:47:47.611Z,37.00
2018-10-09T04:50:16.825Z,39.37
2018-10-09T04:52:45.322Z,38.23
2018-10-09T04:55:13.851Z,37.67
2018-10-09T04:57:42.372Z,38.27
2018-10-09T05:00:10.934Z,34.93
2018-10-09T05:02:39.469Z,38.00
2018-10-09T05:05:07.998Z,36.07
2018-10-09T05:07:36.623Z,34.00
2018-10-09T05:10:05.463Z,38.23
2018-10-09T05:12:34.048Z,38.70
2018-10-09T05:15:02.607Z,41.30
2018-10-09T05:17:31.154Z,43.50
2018-10-09T05:19:59.762Z,40.17
2018-10-09T05:22:28.279Z,42.40
2018-10-09T05:24:56.832Z,41.33
2018-10-09T05:27:25.350Z,39.50
2018-10-09T05:29:53.927Z,40.57
2018-10-09T05:32:22.502Z,37.77
2018-10-09T05:34:51.051Z,38.80
2018-10-09T05:37:19.622Z,37.87
2018-10-09T05:39:48.204Z,38.67
2018-10-09T05:42:16.756Z,36.97
2018-10-09T05:44:45.335Z,38.30
2018-10-09T05:47:14.309Z,34.27
2018-10-09T05:49:43.005Z,38.20
2018-10-09T05:52:11.527Z,36.43
2018-10-09T05:54:40.355Z,36.47
2018-10-09T05:57:09.743Z,37.23
2018-10-09T05:59:38.493Z,38.33
2018-10-09T06:02:07.184Z,38.87
2018-10-09T06:04:35.769Z,37.60
2018-10-09T06:07:04.288Z,40.40
2018-10-09T06:09:32.786Z,42.57
2018-10-09T06:12:01.366Z,43.13
2018-10-09T06:14:30.279Z,43.50
2018-10-09T06:16:58.879Z,43.27
2018-10-09T06:19:27.563Z,45.90
2018-10-09T06:21:56.226Z,43.10
2018-10-09T06:24:24.775Z,45.00
2018-10-09T06:26:53.291Z,44.80
2018-10-09T06:29:21.819Z,45.63
2018-10-09T06:31:50.351Z,43.77
2018-10-09T06:34:18.925Z,42.90
2018-10-09T06:36:47.528Z,43.00
2018-10-09T06:39:16.088Z,39.87
2018-10-09T06:41:44.662Z,40.73
2018-10-09T06:44:13.220Z,40.50
2018-10-09T06:46:41.798Z,39.10
2018-10-09T06:49:10.326Z,38.53
2018-10-09T06:51:38.840Z,33.70
2018-10-09T06:54:07.584Z,32.47
2018-10-09T06:56:35.990Z,33.70
2018-10-09T06:59:04.609Z,33.60
2018-10-09T07:01:33.235Z,33.83
2018-10-09T07:04:01.839Z,38.07
2018-10-09T07:06:30.425Z,46.60
2018-10-09T07:08:58.962Z,36.00
2018-10-09T07:11:27.654Z,32.17
2018-10-09T07:13:56.165Z,30.63
2018-10-09T07:16:24.727Z,32.20
2018-10-09T07:18:53.315Z,30.40
2018-10-09T07:21:21.903Z,29.17
2018-10-09T07:23:50.427Z,31.33
2018-10-09T07:26:19.001Z,29.47
2018-10-09T07:28:47.539Z,30.50
2018-10-09T07:31:16.106Z,30.97
2018-10-09T07:33:44.668Z,31.37
2018-10-09T07:36:13.234Z,31.07
2018-10-09T07:38:41.786Z,30.80
2018-10-09T07:41:10.657Z,29.90
2018-10-09T07:43:39.210Z,31.80
2018-10-09T07:46:07.812Z,30.23
2018-10-09T07:48:36.338Z,29.40
2018-10-09T07:51:05.783Z,30.43
2018-10-09T07:53:34.323Z,29.20
2018-10-09T07:56:02.934Z,30.27
2018-10-09T07:58:31.591Z,28.40
2018-10-09T08:01:00.064Z,26.70
2018-10-09T08:03:28.642Z,27.20
2018-10-09T08:05:57.166Z,26.60
2018-10-09T08:08:25.679Z,28.13
2018-10-09T08:10:54.218Z,28.10
2018-10-09T08:13:22.763Z,27.00
2018-10-09T08:15:51.314Z,28.60
2018-10-09T08:18:19.882Z,26.93
2018-10-09T08:20:48.426Z,26.80
2018-10-09T08:23:17.019Z,26.90
2018-10-09T08:25:45.567Z,27.07
2018-10-09T08:28:14.155Z,25.83
2018-10-09T08:30:42.708Z,26.40
2018-10-09T08:33:11.243Z,25.90
2018-10-09T08:35:39.771Z,25.20
2018-10-09T08:38:08.383Z,26.10
2018-10-09T08:40:37.690Z,23.70
2018-10-09T08:43:06.283Z,23.10
2018-10-09T08:45:34.777Z,25.77
2018-10-09T08:48:03.396Z,25.83
2018-10-09T08:50:31.931Z,24.87
2018-10-09T08:53:00.490Z,25.43
2018-10-09T08:55:29.144Z,24.63
2018-10-09T08:57:57.830Z,25.27
2018-10-09T09:00:26.447Z,23.23
2018-10-09T09:02:54.994Z,22.97
2018-10-09T09:05:23.530Z,23.40
2018-10-09T09:07:52.135Z,22.00
2018-10-09T09:10:20.684Z,22.60
2018-10-09T09:12:49.342Z,21.77
2018-10-09T09:15:17.948Z,20.70
2018-10-09T09:17:46.450Z,19.37
2018-10-09T09:20:14.969Z,19.07
2018-10-09T09:22:43.497Z,19.10
2018-10-09T09:25:12.558Z,18.43
2018-10-09T09:27:41.199Z,19.10
2018-10-09T09:30:09.770Z,17.57
2018-10-09T09:32:38.307Z,17.70
2018-10-09T09:35:06.842Z,15.27
2018-10-09T09:37:35.474Z,14.13
2018-10-09T09:40:04.083Z,14.40
2018-10-09T09:42:32.610Z,14.10
2018-10-09T09:45:01.087Z,13.77
2018-10-09T09:47:29.662Z,15.47
2018-10-09T09:49:58.257Z,13.40
2018-10-09T09:52:26.819Z,15.17
2018-10-09T09:54:55.423Z,14.80
2018-10-09T09:57:23.927Z,15.53
2018-10-09T09:59:52.535Z,14.33
2018-10-09T10:02:21.072Z,14.33
2018-10-09T10:04:50.406Z,14.50
2018-10-09T10:07:18.899Z,14.97
2018-10-09T10:09:47.456Z,14.30
2018-10-09T10:12:16.479Z,15.40
2018-10-09T10:14:45.006Z,14.80
2018-10-09T10:17:13.517Z,15.30
2018-10-09T10:19:42.123Z,13.90
2018-10-09T10:22:10.668Z,14.87
2018-10-09T10:24:39.289Z,14.53
2018-10-09T10:27:07.827Z,13.40
2018-10-09T10:29:36.416Z,14.10
2018-10-09T10:32:04.992Z,13.13
2018-10-09T10:34:33.507Z,14.27
2018-10-09T10:37:02.045Z,13.27
2018-10-09T10:39:30.611Z,13.53
2018-10-09T10:41:59.764Z,14.90
2018-10-09T10:44:28.285Z,12.67
2018-10-09T10:46:56.809Z,12.70
2018-10-09T10:49:25.469Z,13.30
2018-10-09T10:51:53.999Z,13.67
2018-10-09T10:54:22.510Z,11.40
2018-10-09T10:56:51.080Z,11.50
2018-10-09T10:59:19.678Z,12.90
2018-10-09T11:01:48.237Z,11.60
2018-10-09T11:04:16.764Z,11.67
2018-10-09T11:06:45.300Z,11.63
2018-10-09T11:09:13.917Z,11.53
2018-10-09T11:11:42.462Z,11.57
2018-10-09T11:14:11.000Z,11.30
2018-10-09T11:16:39.531Z,10.10
2018-10-09T11:19:08.075Z,11.40
2018-10-09T11:21:36.702Z,13.03
2018-10-09T11:24:05.217Z,10.30
2018-10-09T11:26:33.782Z,10.77
2018-10-09T11:29:02.275Z,9.47
2018-10-09T11:31:30.827Z,10.57
2018-10-09T11:33:59.364Z,10.20
2018-10-09T11:36:27.991Z,11.50
2018-10-09T11:38:56.564Z,10.37
2018-10-09T11:41:25.067Z,10.50
2018-10-09T11:43:53.578Z,10.50
2018-10-09T11:46:22.083Z,10.47
2018-10-09T11:48:50.688Z,10.57
2018-10-09T11:51:25.650Z,11.10
2018-10-09T11:53:54.239Z,12.70
2018-10-09T11:56:22.754Z,11.83
2018-10-09T11:58:51.360Z,11.57
2018-10-09T12:01:19.911Z,10.87
2018-10-09T12:03:48.407Z,11.50
2018-10-09T12:06:17.071Z,12.20
2018-10-09T12:08:45.648Z,10.00
2018-10-09T12:11:14.208Z,9.77
2018-10-09T12:13:42.751Z,9.17
2018-10-09T12:16:11.324Z,8.37
2018-10-09T12:18:39.806Z,9.20
2018-10-09T12:21:08.398Z,10.17
2018-10-09T12:23:36.922Z,10.43
2018-10-09T12:26:05.500Z,9.57
2018-10-09T12:28:33.995Z,9.33
2018-10-09T12:31:02.670Z,10.03
2018-10-09T12:33:31.188Z,9.50
2018-10-09T12:35:59.765Z,9.40
2018-10-09T12:38:29.322Z,9.80
2018-10-09T12:40:57.894Z,9.63
2018-10-09T12:43:26.394Z,9.30
2018-10-09T12:45:54.931Z,10.50
2018-10-09T12:48:23.470Z,9.57
2018-10-09T12:50:52.002Z,10.40
2018-10-09T12:53:20.717Z,11.00
2018-10-09T12:55:49.324Z,10.97
2018-10-09T12:58:17.864Z,11.67
2018-10-09T13:00:46.404Z,11.23
2018-10-09T13:03:15.057Z,12.13
2018-10-09T13:05:43.643Z,9.97
2018-10-09T13:08:12.191Z,11.33
2018-10-09T13:10:40.870Z,14.07
2018-10-09T13:13:09.399Z,10.10
2018-10-09T13:15:37.954Z,10.47
2018-10-09T13:18:06.520Z,9.13
2018-10-09T13:20:35.135Z,9.80
2018-10-09T13:23:03.700Z,9.27
2018-10-09T13:25:32.209Z,9.90
2018-10-09T13:28:00.798Z,10.07
2018-10-09T13:30:29.272Z,9.33
2018-10-09T13:32:58.434Z,9.20
2018-10-09T13:35:27.019Z,10.30
2018-10-09T13:37:55.605Z,8.30
2018-10-09T13:40:24.525Z,9.47
2018-10-09T13:42:53.075Z,9.30
2018-10-09T13:45:21.579Z,8.70
2018-10-09T13:47:50.138Z,8.40
2018-10-09T13:50:18.594Z,8.10
2018-10-09T13:52:47.166Z,9.03
2018-10-09T13:55:15.734Z,9.03
2018-10-09T13:57:44.238Z,8.77
2018-10-09T14:00:13.339Z,7.93
2018-10-09T14:02:41.844Z,8.17
2018-10-09T14:05:10.350Z,9.00
2018-10-09T14:07:38.853Z,8.40
2018-10-09T14:10:07.655Z,8.20
2018-10-09T14:12:36.199Z,8.70
2018-10-09T14:15:04.959Z,8.50
2018-10-09T14:17:33.639Z,7.90
2018-10-09T14:20:02.257Z,7.40
2018-10-09T14:22:30.789Z,8.60
2018-10-09T14:24:59.332Z,7.07
2018-10-09T14:27:27.855Z,6.33
2018-10-09T14:29:56.441Z,6.60
2018-10-09T14:32:25.079Z,6.77
2018-10-09T14:34:53.704Z,7.30
2018-10-09T14:37:22.209Z,6.67
2018-10-09T14:39:50.779Z,7.40
2018-10-09T14:42:19.790Z,6.37
2018-10-09T14:44:48.484Z,6.77
2018-10-09T14:47:17.103Z,6.53
2018-10-09T14:49:46.370Z,6.43
2018-10-09T14:52:14.931Z,7.90
2018-10-09T14:54:43.491Z,7.53
2018-10-09T14:57:12.023Z,6.90
2018-10-09T14:59:40.648Z,7.13
2018-10-09T15:02:09.285Z,7.60
2018-10-09T15:04:37.803Z,7.90
2018-10-09T15:07:06.344Z,8.13
2018-10-09T15:09:34.860Z,8.30
2018-10-09T15:12:04.674Z,6.80
2018-10-09T15:14:33.238Z,7.13
2018-10-09T15:17:02.608Z,7.90
2018-10-09T15:19:31.127Z,8.23
2018-10-09T15:21:59.661Z,7.30
2018-10-09T15:24:28.187Z,7.33
2018-10-09T15:26:56.765Z,7.83
2018-10-09T15:29:25.269Z,8.57
2018-10-09T15:31:53.787Z,8.87
2018-10-09T15:34:22.358Z,9.07
2018-10-09T15:36:50.838Z,10.30
2018-10-09T15:39:19.450Z,8.47
2018-10-09T15:41:48.001Z,9.70
2018-10-09T15:44:16.512Z,9.40
2018-10-09T15:46:45.091Z,9.33
2018-10-09T15:49:13.668Z,9.60
2018-10-09T15:51:42.219Z,9.63
2018-10-09T15:54:10.810Z,10.20
2018-10-09T15:56:39.424Z,11.37
2018-10-09T15:59:08.073Z,9.90
2018-10-09T16:01:36.583Z,10.87
2018-10-09T16:04:05.189Z,10.57
2018-10-09T16:06:33.788Z,10.40
2018-10-09T16:09:02.431Z,11.23
2018-10-09T16:11:31.055Z,11.30
2018-10-09T16:13:59.640Z,9.97
2018-10-09T16:16:28.167Z,11.50
2018-10-09T16:18:56.801Z,10.97
2018-10-09T16:21:25.375Z,11.00
2018-10-09T16:23:53.915Z,10.17
2018-10-09T16:26:22.480Z,11.03
2018-10-09T16:28:50.994Z,10.87
2018-10-09T16:31:19.538Z,10.50
2018-10-09T16:33:48.408Z,9.77
2018-10-09T16:36:16.973Z,9.77
2018-10-09T16:38:45.572Z,12.20
2018-10-09T16:41:14.119Z,9.97
2018-10-09T16:43:42.635Z,10.20
2018-10-09T16:46:11.731Z,10.77
2018-10-09T16:48:40.787Z,10.00
2018-10-09T16:51:09.390Z,9.40
2018-10-09T16:53:37.931Z,10.17
2018-10-09T16:56:06.556Z,9.10
2018-10-09T16:58:35.140Z,10.60
2018-10-09T17:01:03.666Z,10.63
2018-10-09T17:03:32.199Z,10.70
2018-10-09T17:06:00.783Z,10.20
2018-10-09T17:08:29.316Z,10.00
2018-10-09T17:10:57.857Z,11.60
2018-10-09T17:13:26.618Z,11.47
2018-10-09T17:15:55.136Z,11.13
2018-10-09T17:18:23.762Z,12.10
2018-10-09T17:20:52.299Z,11.93
2018-10-09T17:23:20.923Z,12.93
2018-10-09T17:25:49.523Z,11.70
2018-10-09T17:28:18.032Z,14.47
2018-10-09T17:30:46.648Z,13.13
2018-10-09T17:33:16.772Z,13.73
2018-10-09T17:35:45.290Z,13.20
2018-10-09T17:38:14.478Z,12.80
2018-10-09T17:40:43.148Z,12.87
2018-10-09T17:43:11.694Z,13.50
2018-10-09T17:45:40.216Z,12.10
2018-10-09T17:48:08.771Z,12.43
2018-10-09T17:50:37.310Z,16.77
2018-10-09T17:53:05.855Z,13.77
2018-10-09T17:55:34.407Z,13.87
2018-10-09T17:58:02.955Z,14.00
2018-10-09T18:00:31.699Z,12.90
2018-10-09T18:03:00.354Z,11.43
2018-10-09T18:05:28.999Z,12.70
2018-10-09T18:07:57.607Z,12.40
2018-10-09T18:10:26.109Z,13.00
2018-10-09T18:12:54.746Z,12.43
2018-10-09T18:15:23.354Z,13.07
2018-10-09T18:17:51.904Z,14.37
2018-10-09T18:20:20.441Z,55.17
2018-10-09T18:22:49.094Z,30.60
2018-10-09T18:25:17.768Z,23.00
2018-10-09T18:27:46.415Z,22.90
2018-10-09T18:30:15.084Z,25.13
2018-10-09T18:32:43.692Z,25.23
2018-10-09T18:35:12.300Z,23.60
2018-10-09T18:37:40.866Z,19.93
2018-10-09T18:40:09.659Z,21.57
2018-10-09T18:42:38.246Z,21.73
2018-10-09T18:45:07.240Z,21.13
2018-10-09T18:47:44.668Z,23.43
2018-10-09T18:50:13.678Z,20.90
2018-10-09T18:52:42.933Z,21.37
2018-10-09T18:55:13.862Z,22.93
2018-10-09T18:57:42.569Z,21.47
2018-10-09T19:00:11.580Z,22.23
2018-10-09T19:02:40.579Z,22.13
2018-10-09T19:05:09.784Z,21.80
2018-10-09T19:07:38.547Z,19.90
2018-10-09T19:10:07.476Z,19.80
2018-10-09T19:12:35.963Z,18.23
2018-10-09T19:15:04.586Z,18.40
2018-10-09T19:17:33.191Z,18.60
2018-10-09T19:20:01.840Z,18.33
2018-10-09T19:22:30.494Z,17.67
2018-10-09T19:24:59.100Z,19.47
2018-10-09T19:27:27.632Z,21.63
2018-10-09T19:29:56.197Z,18.83
2018-10-09T19:32:24.845Z,19.40
2018-10-09T19:34:53.363Z,19.03
2018-10-09T19:37:22.069Z,19.50
2018-10-09T19:39:50.571Z,20.63
2018-10-09T19:42:19.160Z,20.87
2018-10-09T19:44:48.482Z,19.87
2018-10-09T19:47:17.150Z,20.00
2018-10-09T19:49:45.758Z,21.87
2018-10-09T19:52:14.415Z,22.37
2018-10-09T19:54:43.009Z,19.20
2018-10-09T19:57:11.580Z,19.10
2018-10-09T19:59:40.090Z,21.17
2018-10-09T20:02:15.183Z,18.63
2018-10-09T20:04:43.786Z,19.93
2018-10-09T20:07:12.301Z,18.93
2018-10-09T20:09:40.843Z,20.73
2018-10-09T20:12:09.351Z,23.03
2018-10-09T20:14:37.845Z,22.17
2018-10-09T20:17:06.428Z,20.53
2018-10-09T20:19:35.340Z,22.80
2018-10-09T20:22:03.868Z,23.10
2018-10-09T20:24:32.446Z,21.97
2018-10-09T20:27:01.611Z,23.83
2018-10-09T20:29:30.106Z,23.07
2018-10-09T20:31:58.634Z,24.40
2018-10-09T20:34:27.171Z,24.30
2018-10-09T20:36:55.715Z,27.77
2018-10-09T20:39:24.245Z,27.80
2018-10-09T20:41:52.818Z,23.17
2018-10-09T20:44:21.417Z,26.17
2018-10-09T20:46:49.946Z,25.83
2018-10-09T20:49:18.568Z,25.00
2018-10-09T20:51:47.281Z,26.37
2018-10-09T20:54:15.784Z,24.93
2018-10-09T20:56:44.319Z,23.57
2018-10-09T20:59:12.876Z,27.30
2018-10-09T21:01:41.388Z,30.20
2018-10-09T21:04:09.953Z,27.33
2018-10-09T21:06:38.524Z,26.87
2018-10-09T21:09:07.565Z,27.67
2018-10-09T21:11:36.079Z,27.63
2018-10-09T21:14:04.614Z,26.47
2018-10-09T21:19:12.390Z,32.50
2018-10-09T21:21:40.947Z,29.87
2018-10-09T21:24:09.472Z,28.40
2018-10-09T21:26:38.119Z,26.10
2018-10-09T21:29:06.789Z,29.27
2018-10-09T21:31:35.318Z,27.60
2018-10-09T21:34:04.117Z,30.43
2018-10-09T21:36:32.715Z,27.30
2018-10-09T21:39:01.273Z,26.80
2018-10-09T21:41:29.807Z,30.10
2018-10-09T21:43:58.379Z,27.57
2018-10-09T21:46:26.895Z,31.03
2018-10-09T21:48:55.453Z,29.20
2018-10-09T21:51:24.043Z,32.50
2018-10-09T21:53:53.218Z,31.57
2018-10-09T21:56:21.738Z,32.50
2018-10-09T21:58:50.358Z,30.63
2018-10-09T22:01:18.949Z,31.33
2018-10-09T22:03:48.564Z,29.90
2018-10-09T22:06:17.095Z,33.50
2018-10-09T22:08:45.598Z,33.60
2018-10-09T22:11:14.224Z,32.77
2018-10-09T22:13:42.738Z,31.73
2018-10-09T22:16:11.487Z,32.63
2018-10-09T22:18:40.015Z,34.10
2018-10-09T22:21:08.532Z,33.43
2018-10-09T22:23:37.131Z,35.97
2018-10-09T22:27:08.474Z,34.50
2018-10-09T22:29:37.070Z,34.67
2018-10-09T22:32:05.618Z,32.40
2018-10-09T22:34:34.136Z,34.40
2018-10-09T22:37:02.700Z,35.73
2018-10-09T22:39:31.603Z,39.50
2018-10-09T22:42:00.396Z,31.43
2018-10-09T22:44:29.203Z,31.90
2018-10-09T22:46:57.711Z,30.10
2018-10-09T22:49:26.254Z,32.80
2018-10-09T22:51:54.857Z,34.37
2018-10-09T22:54:23.415Z,32.70
2018-10-09T22:56:51.970Z,33.90
2018-10-09T22:59:20.507Z,37.70
2018-10-09T23:01:49.029Z,34.60
2018-10-09T23:04:17.590Z,35.10
2018-10-09T23:06:46.110Z,32.50
2018-10-09T23:09:14.687Z,37.87
2018-10-09T23:11:43.207Z,36.17
2018-10-09T23:14:11.735Z,39.47
2018-10-09T23:16:40.346Z,36.90
2018-10-09T23:19:08.903Z,38.30
2018-10-09T23:21:37.463Z,39.83
2018-10-09T23:24:05.992Z,38.30
2018-10-09T23:26:34.620Z,36.83
2018-10-09T23:29:03.173Z,36.70
2018-10-09T23:31:32.578Z,36.53
2018-10-09T23:34:01.187Z,38.53
2018-10-09T23:36:29.662Z,37.40
2018-10-09T23:38:58.232Z,38.70
2018-10-09T23:41:26.832Z,39.80
2018-10-09T23:43:55.369Z,38.20
2018-10-09T23:46:23.933Z,34.70
2018-10-09T23:48:52.455Z,35.47
2018-10-09T23:51:21.004Z,33.73
2018-10-09T23:53:49.529Z,35.97
2018-10-09T23:56:18.614Z,39.67
2018-10-09T23:58:47.269Z,39.33
